sensor_id;sensor_type;location;lat;lon;timestamp;P1;durP1;ratioP1;P2;durP2;ratioP2
16967;SDS011;64862;54.398;10.126;2023-05-16T00:15:38;5.70;;;3.13;;
16967;SDS011;64862;54.398;10.126;2023-05-16T00:25:43;6.20;;;2.72;;
16967;SDS011;64862;54.398;10.126;2023-05-16T00:35:47;6.78;;;2.60;;
16967;SDS011;64862;54.398;10.126;2023-05-16T00:45:51;5.95;;;2.33;;
16967;SDS011;64862;54.398;10.126;2023-05-16T00:55:55;7.47;;;2.50;;
16967;SDS011;64862;54.398;10.126;2023-05-16T01:05:58;6.85;;;2.40;;
16967;SDS011;64862;54.398;10.126;2023-05-16T01:16:03;7.60;;;2.35;;
16967;SDS011;64862;54.398;10.126;2023-05-16T01:26:17;6.80;;;2.20;;
16967;SDS011;64862;54.398;10.126;2023-05-16T01:36:23;7.00;;;2.00;;
16967;SDS011;64862;54.398;10.126;2023-05-16T01:46:29;9.63;;;2.15;;
16967;SDS011;64862;54.398;10.126;2023-05-16T01:56:33;8.55;;;1.45;;
16967;SDS011;64862;54.398;10.126;2023-05-16T02:06:38;11.80;;;1.75;;
16967;SDS011;64862;54.398;10.126;2023-05-16T02:16:41;15.68;;;1.83;;
16967;SDS011;64862;54.398;10.126;2023-05-16T02:26:45;12.38;;;1.75;;
16967;SDS011;64862;54.398;10.126;2023-05-16T02:36:47;15.48;;;2.10;;
16967;SDS011;64862;54.398;10.126;2023-05-16T02:46:51;16.75;;;2.35;;
16967;SDS011;64862;54.398;10.126;2023-05-16T02:56:54;11.55;;;2.22;;
16967;SDS011;64862;54.398;10.126;2023-05-16T03:06:58;20.88;;;2.75;;
16967;SDS011;64862;54.398;10.126;2023-05-16T03:17:01;19.27;;;2.65;;
16967;SDS011;64862;54.398;10.126;2023-05-16T03:27:05;20.55;;;2.90;;
16967;SDS011;64862;54.398;10.126;2023-05-16T03:37:08;17.42;;;2.55;;
16967;SDS011;64862;54.398;10.126;2023-05-16T03:47:12;17.67;;;2.65;;
16967;SDS011;64862;54.398;10.126;2023-05-16T03:57:15;17.02;;;2.67;;
16967;SDS011;64862;54.398;10.126;2023-05-16T04:07:19;16.88;;;2.50;;
16967;SDS011;64862;54.398;10.126;2023-05-16T04:17:21;17.92;;;2.92;;
16967;SDS011;64862;54.398;10.126;2023-05-16T04:27:25;16.92;;;2.33;;
16967;SDS011;64862;54.398;10.126;2023-05-16T04:37:28;24.02;;;2.63;;
16967;SDS011;64862;54.398;10.126;2023-05-16T04:47:32;21.70;;;2.40;;
16967;SDS011;64862;54.398;10.126;2023-05-16T04:57:35;17.30;;;2.53;;
16967;SDS011;64862;54.398;10.126;2023-05-16T05:07:39;16.55;;;2.17;;
16967;SDS011;64862;54.398;10.126;2023-05-16T05:17:42;19.00;;;2.33;;
16967;SDS011;64862;54.398;10.126;2023-05-16T05:27:46;25.90;;;2.45;;
16967;SDS011;64862;54.398;10.126;2023-05-16T05:37:48;19.40;;;2.25;;
16967;SDS011;64862;54.398;10.126;2023-05-16T05:48:05;15.57;;;2.15;;
16967;SDS011;64862;54.398;10.126;2023-05-16T05:58:08;22.40;;;2.15;;
16967;SDS011;64862;54.398;10.126;2023-05-16T06:08:12;22.13;;;2.63;;
16967;SDS011;64862;54.398;10.126;2023-05-16T06:18:14;23.50;;;2.90;;
16967;SDS011;64862;54.398;10.126;2023-05-16T06:28:20;14.80;;;2.10;;
16967;SDS011;64862;54.398;10.126;2023-05-16T06:38:23;13.63;;;2.00;;
16967;SDS011;64862;54.398;10.126;2023-05-16T06:48:27;11.80;;;1.80;;
16967;SDS011;64862;54.398;10.126;2023-05-16T06:58:30;15.85;;;1.58;;
16967;SDS011;64862;54.398;10.126;2023-05-16T07:08:34;15.82;;;1.67;;
16967;SDS011;64862;54.398;10.126;2023-05-16T07:18:36;14.32;;;2.03;;
16967;SDS011;64862;54.398;10.126;2023-05-16T07:28:40;13.50;;;2.28;;
16967;SDS011;64862;54.398;10.126;2023-05-16T07:38:42;14.13;;;2.03;;
16967;SDS011;64862;54.398;10.126;2023-05-16T07:48:47;15.85;;;1.98;;
16967;SDS011;64862;54.398;10.126;2023-05-16T07:58:49;11.27;;;1.80;;
16967;SDS011;64862;54.398;10.126;2023-05-16T08:08:54;14.90;;;1.90;;
16967;SDS011;64862;54.398;10.126;2023-05-16T08:18:57;10.27;;;1.67;;
16967;SDS011;64862;54.398;10.126;2023-05-16T08:29:01;8.85;;;1.58;;
16967;SDS011;64862;54.398;10.126;2023-05-16T08:39:04;10.27;;;1.45;;
16967;SDS011;64862;54.398;10.126;2023-05-16T08:49:09;10.60;;;1.65;;
16967;SDS011;64862;54.398;10.126;2023-05-16T08:59:12;10.02;;;1.70;;
16967;SDS011;64862;54.398;10.126;2023-05-16T09:09:17;9.88;;;1.60;;
16967;SDS011;64862;54.398;10.126;2023-05-16T09:19:20;9.35;;;1.80;;
16967;SDS011;64862;54.398;10.126;2023-05-16T09:29:26;8.45;;;1.60;;
16967;SDS011;64862;54.398;10.126;2023-05-16T09:39:28;10.85;;;1.75;;
16967;SDS011;64862;54.398;10.126;2023-05-16T09:49:32;7.10;;;1.63;;
16967;SDS011;64862;54.398;10.126;2023-05-16T09:59:36;9.65;;;1.73;;
16967;SDS011;64862;54.398;10.126;2023-05-16T10:09:40;12.88;;;2.03;;
16967;SDS011;64862;54.398;10.126;2023-05-16T10:19:45;6.18;;;1.42;;
16967;SDS011;64862;54.398;10.126;2023-05-16T10:29:50;11.52;;;2.30;;
16967;SDS011;64862;54.398;10.126;2023-05-16T10:39:53;10.70;;;2.20;;
16967;SDS011;64862;54.398;10.126;2023-05-16T10:49:57;17.13;;;2.38;;
16967;SDS011;64862;54.398;10.126;2023-05-16T11:00:02;10.43;;;2.10;;
16967;SDS011;64862;54.398;10.126;2023-05-16T11:10:15;15.30;;;1.80;;
16967;SDS011;64862;54.398;10.126;2023-05-16T11:30:42;15.73;;;2.38;;
16967;SDS011;64862;54.398;10.126;2023-05-16T11:40:44;14.63;;;1.90;;
16967;SDS011;64862;54.398;10.126;2023-05-16T11:50:48;11.80;;;1.80;;
16967;SDS011;64862;54.398;10.126;2023-05-16T12:00:52;14.13;;;1.95;;
16967;SDS011;64862;54.398;10.126;2023-05-16T12:10:56;15.88;;;2.42;;
16967;SDS011;64862;54.398;10.126;2023-05-16T12:20:58;9.98;;;1.75;;
16967;SDS011;64862;54.398;10.126;2023-05-16T12:31:03;10.85;;;1.90;;
16967;SDS011;64862;54.398;10.126;2023-05-16T12:41:05;10.65;;;1.70;;
16967;SDS011;64862;54.398;10.126;2023-05-16T12:51:11;12.05;;;1.98;;
16967;SDS011;64862;54.398;10.126;2023-05-16T13:01:14;10.73;;;1.35;;
16967;SDS011;64862;54.398;10.126;2023-05-16T13:11:19;7.32;;;1.40;;
16967;SDS011;64862;54.398;10.126;2023-05-16T13:21:21;12.50;;;1.52;;
16967;SDS011;64862;54.398;10.126;2023-05-16T13:31:26;17.13;;;1.70;;
16967;SDS011;64862;54.398;10.126;2023-05-16T13:41:28;7.65;;;1.00;;
16967;SDS011;64862;54.398;10.126;2023-05-16T13:51:33;8.35;;;1.30;;
16967;SDS011;64862;54.398;10.126;2023-05-16T14:01:35;7.18;;;1.40;;
16967;SDS011;64862;54.398;10.126;2023-05-16T14:11:39;9.25;;;1.60;;
16967;SDS011;64862;54.398;10.126;2023-05-16T14:21:41;8.70;;;1.80;;
16967;SDS011;64862;54.398;10.126;2023-05-16T14:31:45;10.75;;;1.80;;
16967;SDS011;64862;54.398;10.126;2023-05-16T14:41:47;12.52;;;2.00;;
16967;SDS011;64862;54.398;10.126;2023-05-16T14:51:51;13.35;;;2.22;;
16967;SDS011;64862;54.398;10.126;2023-05-16T15:01:54;12.85;;;2.13;;
16967;SDS011;64862;54.398;10.126;2023-05-16T15:11:58;10.32;;;2.25;;
16967;SDS011;64862;54.398;10.126;2023-05-16T15:22:01;11.30;;;2.40;;
16967;SDS011;64862;54.398;10.126;2023-05-16T15:32:08;12.02;;;2.20;;
16967;SDS011;64862;54.398;10.126;2023-05-16T15:42:12;7.80;;;1.90;;
16967;SDS011;64862;54.398;10.126;2023-05-16T15:52:16;7.22;;;2.00;;
16967;SDS011;64862;54.398;10.126;2023-05-16T16:02:18;12.40;;;2.35;;
16967;SDS011;64862;54.398;10.126;2023-05-16T16:12:22;10.57;;;1.95;;
16967;SDS011;64862;54.398;10.126;2023-05-16T16:22:24;8.75;;;1.90;;
16967;SDS011;64862;54.398;10.126;2023-05-16T16:32:28;7.47;;;2.10;;
16967;SDS011;64862;54.398;10.126;2023-05-16T16:42:31;8.63;;;2.20;;
16967;SDS011;64862;54.398;10.126;2023-05-16T16:52:35;13.43;;;2.88;;
16967;SDS011;64862;54.398;10.126;2023-05-16T17:02:37;10.98;;;3.10;;
16967;SDS011;64862;54.398;10.126;2023-05-16T17:12:41;14.55;;;3.30;;
16967;SDS011;64862;54.398;10.126;2023-05-16T17:22:48;16.58;;;3.47;;
16967;SDS011;64862;54.398;10.126;2023-05-16T17:32:52;15.45;;;2.92;;
16967;SDS011;64862;54.398;10.126;2023-05-16T17:42:54;14.07;;;3.30;;
16967;SDS011;64862;54.398;10.126;2023-05-16T17:52:58;20.58;;;4.78;;
16967;SDS011;64862;54.398;10.126;2023-05-16T18:03:00;27.23;;;5.65;;
16967;SDS011;64862;54.398;10.126;2023-05-16T18:13:04;28.92;;;5.97;;
16967;SDS011;64862;54.398;10.126;2023-05-16T18:23:07;24.67;;;5.93;;
16967;SDS011;64862;54.398;10.126;2023-05-16T18:33:11;29.35;;;6.97;;
16967;SDS011;64862;54.398;10.126;2023-05-16T18:43:13;35.92;;;7.38;;
16967;SDS011;64862;54.398;10.126;2023-05-16T18:53:17;31.42;;;6.88;;
16967;SDS011;64862;54.398;10.126;2023-05-16T19:03:20;34.90;;;7.40;;
16967;SDS011;64862;54.398;10.126;2023-05-16T19:13:24;36.28;;;7.63;;
16967;SDS011;64862;54.398;10.126;2023-05-16T19:23:26;36.40;;;7.53;;
16967;SDS011;64862;54.398;10.126;2023-05-16T19:33:30;32.50;;;7.68;;
16967;SDS011;64862;54.398;10.126;2023-05-16T19:43:33;38.85;;;7.78;;
16967;SDS011;64862;54.398;10.126;2023-05-16T19:53:37;30.23;;;6.68;;
16967;SDS011;64862;54.398;10.126;2023-05-16T20:03:40;31.80;;;6.35;;
16967;SDS011;64862;54.398;10.126;2023-05-16T20:13:47;28.95;;;5.72;;
16967;SDS011;64862;54.398;10.126;2023-05-16T20:23:50;34.75;;;5.80;;
16967;SDS011;64862;54.398;10.126;2023-05-16T20:33:54;34.42;;;5.93;;
16967;SDS011;64862;54.398;10.126;2023-05-16T20:43:56;32.55;;;5.40;;
16967;SDS011;64862;54.398;10.126;2023-05-16T20:54:00;31.23;;;5.93;;
16967;SDS011;64862;54.398;10.126;2023-05-16T21:04:03;29.08;;;5.53;;
16967;SDS011;64862;54.398;10.126;2023-05-16T21:14:09;22.95;;;5.15;;
16967;SDS011;64862;54.398;10.126;2023-05-16T21:24:11;23.52;;;5.28;;
16967;SDS011;64862;54.398;10.126;2023-05-16T21:34:15;28.13;;;5.32;;
16967;SDS011;64862;54.398;10.126;2023-05-16T21:44:17;23.55;;;5.15;;
16967;SDS011;64862;54.398;10.126;2023-05-16T21:54:21;27.77;;;5.10;;
16967;SDS011;64862;54.398;10.126;2023-05-16T22:04:24;31.13;;;4.95;;
16967;SDS011;64862;54.398;10.126;2023-05-16T22:14:28;25.45;;;5.07;;
16967;SDS011;64862;54.398;10.126;2023-05-16T22:24:30;30.02;;;5.00;;
16967;SDS011;64862;54.398;10.126;2023-05-16T22:34:34;22.15;;;4.72;;
16967;SDS011;64862;54.398;10.126;2023-05-16T22:44:38;24.73;;;3.72;;
16967;SDS011;64862;54.398;10.126;2023-05-16T22:54:42;22.48;;;3.63;;
16967;SDS011;64862;54.398;10.126;2023-05-16T23:04:48;22.40;;;3.67;;
16967;SDS011;64862;54.398;10.126;2023-05-16T23:14:52;24.05;;;3.72;;
16967;SDS011;64862;54.398;10.126;2023-05-16T23:24:54;22.48;;;3.20;;
16967;SDS011;64862;54.398;10.126;2023-05-16T23:34:58;21.83;;;3.90;;
16967;SDS011;64862;54.398;10.126;2023-05-16T23:45:00;22.33;;;3.35;;
16967;SDS011;64862;54.398;10.126;2023-05-16T23:55:05;19.63;;;3.35;;
